createdAt,value
2019-05-28T00:00:01.875Z,31.65
2019-05-28T00:00:52.327Z,31.56
2019-05-28T00:01:52.353Z,31.56
2019-05-28T00:02:52.400Z,31.56
2019-05-28T00:03:52.404Z,31.46
2019-05-28T00:04:52.426Z,31.46
2019-05-28T00:05:52.450Z,31.46
2019-05-28T00:06:52.478Z,31.46
2019-05-28T00:07:52.508Z,31.56
2019-05-28T00:08:52.533Z,31.56
2019-05-28T00:09:52.552Z,31.56
2019-05-28T00:10:52.580Z,31.46
2019-05-28T00:11:52.606Z,31.65
2019-05-28T00:12:52.631Z,31.75
2019-05-28T00:13:52.658Z,31.65
2019-05-28T00:14:52.694Z,31.56
2019-05-28T00:15:52.709Z,31.65
2019-05-28T00:16:52.735Z,31.65
2019-05-28T00:17:52.761Z,31.65
2019-05-28T00:18:52.786Z,31.56
2019-05-28T00:19:52.811Z,31.56
2019-05-28T00:20:52.853Z,31.65
2019-05-28T00:21:52.862Z,31.56
2019-05-28T00:22:52.922Z,31.56
2019-05-28T00:23:52.917Z,31.56
2019-05-28T00:24:52.940Z,31.56
2019-05-28T00:25:52.963Z,31.46
2019-05-28T00:26:52.989Z,31.56
2019-05-28T00:27:53.097Z,31.56
2019-05-28T00:28:53.042Z,31.65
2019-05-28T00:29:53.082Z,31.65
2019-05-28T00:30:53.094Z,31.46
2019-05-28T00:31:53.119Z,31.56
2019-05-28T00:32:53.146Z,31.46
2019-05-28T00:33:53.172Z,31.94
2019-05-28T00:34:53.195Z,31.65
2019-05-28T00:35:53.225Z,31.56
2019-05-28T00:36:53.250Z,31.65
2019-05-28T00:37:53.272Z,31.56
2019-05-28T00:38:53.364Z,31.46
2019-05-28T00:39:53.329Z,31.56
2019-05-28T00:40:53.351Z,31.56
2019-05-28T00:41:53.377Z,31.46
2019-05-28T00:42:53.404Z,31.46
2019-05-28T00:43:53.429Z,31.56
2019-05-28T00:44:53.461Z,31.56
2019-05-28T00:45:53.480Z,31.65
2019-05-28T00:46:53.506Z,31.56
2019-05-28T00:47:53.531Z,31.56
2019-05-28T00:48:53.557Z,31.46
2019-05-28T00:49:53.581Z,31.37
2019-05-28T00:50:53.610Z,31.56
2019-05-28T00:51:53.637Z,31.56
2019-05-28T00:52:53.660Z,31.56
2019-05-28T00:53:53.684Z,31.65
2019-05-28T00:54:53.710Z,31.65
2019-05-28T00:55:53.737Z,31.65
2019-05-28T00:56:53.802Z,31.56
2019-05-28T00:57:53.788Z,31.56
2019-05-28T00:58:53.812Z,31.56
2019-05-28T00:59:53.840Z,31.46
2019-05-28T01:00:53.865Z,31.75
2019-05-28T01:01:53.983Z,31.46
2019-05-28T01:02:53.916Z,31.46
2019-05-28T01:03:53.942Z,31.56
2019-05-28T01:04:53.971Z,31.27
2019-05-28T01:05:53.995Z,31.65
2019-05-28T01:06:54.082Z,31.17
2019-05-28T01:07:54.057Z,31.37
2019-05-28T01:08:54.107Z,31.65
2019-05-28T01:09:54.095Z,31.65
2019-05-28T01:10:54.121Z,31.37
2019-05-28T01:11:54.147Z,31.46
2019-05-28T01:12:54.172Z,31.46
2019-05-28T01:13:54.203Z,31.37
2019-05-28T01:14:54.222Z,31.37
2019-05-28T01:15:54.255Z,31.17
2019-05-28T01:16:54.277Z,31.65
2019-05-28T01:17:54.317Z,31.46
2019-05-28T01:18:54.390Z,31.46
2019-05-28T01:19:54.352Z,31.46
2019-05-28T01:20:54.379Z,31.46
2019-05-28T01:21:54.402Z,31.27
2019-05-28T01:22:54.429Z,31.46
2019-05-28T01:23:54.456Z,31.27
2019-05-28T01:24:54.532Z,31.54
2019-05-28T01:25:54.506Z,31.46
2019-05-28T01:26:54.531Z,31.46
2019-05-28T01:27:54.567Z,31.17
2019-05-28T01:28:54.584Z,31.37
2019-05-28T01:29:54.608Z,31.37
2019-05-28T01:31:00.421Z,31.37
2019-05-28T01:31:54.698Z,31.56
2019-05-28T01:32:54.685Z,31.37
2019-05-28T01:33:54.712Z,31.17
2019-05-28T01:34:54.737Z,31.27
2019-05-28T01:35:54.813Z,31.46
2019-05-28T01:36:54.795Z,31.37
2019-05-28T01:37:54.817Z,31.56
2019-05-28T01:38:54.839Z,31.46
2019-05-28T01:39:54.866Z,31.27
2019-05-28T01:40:54.891Z,31.56
2019-05-28T01:41:54.916Z,31.46
2019-05-28T01:42:55.013Z,31.27
2019-05-28T01:43:54.971Z,31.56
2019-05-28T01:44:54.994Z,31.46
2019-05-28T01:45:55.018Z,31.37
2019-05-28T01:46:55.081Z,31.37
2019-05-28T01:47:57.561Z,31.46
2019-05-28T01:48:55.095Z,31.46
2019-05-28T01:49:55.120Z,31.37
2019-05-28T01:50:55.146Z,31.27
2019-05-28T01:51:55.177Z,31.27
2019-05-28T01:52:55.203Z,31.46
2019-05-28T01:53:55.298Z,31.27
2019-05-28T01:54:55.261Z,31.46
2019-05-28T01:55:55.279Z,31.56
2019-05-28T01:56:55.302Z,31.46
2019-05-28T01:57:55.326Z,31.27
2019-05-28T01:58:55.353Z,31.46
2019-05-28T01:59:55.378Z,31.46
2019-05-28T02:01:11.436Z,31.35
2019-05-28T02:01:55.429Z,31.56
2019-05-28T02:02:55.573Z,31.46
2019-05-28T02:03:55.537Z,31.37
2019-05-28T02:04:55.524Z,31.37
2019-05-28T02:05:55.532Z,31.46
2019-05-28T02:06:55.558Z,31.46
2019-05-28T02:07:55.582Z,31.56
2019-05-28T02:08:55.610Z,31.37
2019-05-28T02:09:55.633Z,31.17
2019-05-28T02:10:55.658Z,31.46
2019-05-28T02:11:55.687Z,31.46
2019-05-28T02:12:55.740Z,31.45
2019-05-28T02:13:55.794Z,31.37
2019-05-28T02:14:55.763Z,31.37
2019-05-28T02:15:55.789Z,31.37
2019-05-28T02:16:55.814Z,31.65
2019-05-28T02:17:55.838Z,31.37
2019-05-28T02:18:55.863Z,31.65
2019-05-28T02:19:55.891Z,31.37
2019-05-28T02:20:55.922Z,31.17
2019-05-28T02:21:55.943Z,31.37
2019-05-28T02:22:55.967Z,31.46
2019-05-28T02:23:55.992Z,31.56
2019-05-28T02:24:56.068Z,31.46
2019-05-28T02:25:56.047Z,31.37
2019-05-28T02:26:56.071Z,31.46
2019-05-28T02:27:56.095Z,31.17
2019-05-28T02:28:56.123Z,31.17
2019-05-28T02:29:56.148Z,31.65
2019-05-28T02:30:56.173Z,31.45
2019-05-28T02:31:56.198Z,31.63
2019-05-28T02:32:56.225Z,31.46
2019-05-28T02:33:56.250Z,31.54
2019-05-28T02:34:56.275Z,31.54
2019-05-28T02:35:56.299Z,31.56
2019-05-28T02:36:56.364Z,31.54
2019-05-28T02:37:56.352Z,31.56
2019-05-28T02:38:56.379Z,31.56
2019-05-28T02:39:56.406Z,31.63
2019-05-28T02:40:56.431Z,31.54
2019-05-28T02:41:56.453Z,31.54
2019-05-28T02:42:56.480Z,31.65
2019-05-28T02:43:56.506Z,31.65
2019-05-28T02:44:56.535Z,31.83
2019-05-28T02:45:56.556Z,31.93
2019-05-28T02:46:56.585Z,32.03
2019-05-28T02:47:56.608Z,31.94
2019-05-28T02:48:56.634Z,31.83
2019-05-28T02:49:56.660Z,31.93
2019-05-28T02:50:56.687Z,32.12
2019-05-28T02:51:56.711Z,32.12
2019-05-28T02:52:56.802Z,31.83
2019-05-28T02:53:56.767Z,31.73
2019-05-28T02:54:56.790Z,31.75
2019-05-28T02:55:56.818Z,31.63
2019-05-28T02:56:56.883Z,32.12
2019-05-28T02:57:56.865Z,31.73
2019-05-28T02:58:56.891Z,32.23
2019-05-28T02:59:56.917Z,32.03
2019-05-28T03:00:56.943Z,32.31
2019-05-28T03:01:56.969Z,31.83
2019-05-28T03:02:56.993Z,32.31
2019-05-28T03:03:57.019Z,32.03
2019-05-28T03:04:57.048Z,31.83
2019-05-28T03:05:57.070Z,31.85
2019-05-28T03:06:57.096Z,32.03
2019-05-28T03:07:57.122Z,32.21
2019-05-28T03:08:57.151Z,32.23
2019-05-28T03:09:57.174Z,32.12
2019-05-28T03:11:03.640Z,31.63
2019-05-28T03:11:57.229Z,32.14
2019-05-28T03:12:57.257Z,31.94
2019-05-28T03:13:57.277Z,31.94
2019-05-28T03:14:57.357Z,31.94
2019-05-28T03:15:57.331Z,31.93
2019-05-28T03:16:57.359Z,32.04
2019-05-28T03:17:57.378Z,32.14
2019-05-28T03:18:57.404Z,31.75
2019-05-28T03:19:57.431Z,31.63
2019-05-28T03:20:57.457Z,31.94
2019-05-28T03:21:57.483Z,31.73
2019-05-28T03:22:57.512Z,31.94
2019-05-28T03:23:57.566Z,31.85
2019-05-28T03:24:57.560Z,31.85
2019-05-28T03:25:57.585Z,31.94
2019-05-28T03:26:57.610Z,31.83
2019-05-28T03:27:57.636Z,31.85
2019-05-28T03:28:57.721Z,31.83
2019-05-28T03:29:57.728Z,32.04
2019-05-28T03:30:57.715Z,32.04
2019-05-28T03:32:12.946Z,32.04
2019-05-28T03:32:57.766Z,32.14
2019-05-28T03:33:57.792Z,31.93
2019-05-28T03:34:57.836Z,32.04
2019-05-28T03:35:57.843Z,31.93
2019-05-28T03:36:57.868Z,31.93
2019-05-28T03:37:57.893Z,31.93
2019-05-28T03:38:57.917Z,31.85
2019-05-28T03:39:57.945Z,32.23
2019-05-28T03:40:57.974Z,32.33
2019-05-28T03:41:58.022Z,32.21
2019-05-28T03:42:58.020Z,32.21
2019-05-28T03:43:58.047Z,32.21
2019-05-28T03:44:58.073Z,32.43
2019-05-28T03:45:58.096Z,32.41
2019-05-28T03:46:58.122Z,32.31
2019-05-28T03:47:58.150Z,32.23
2019-05-28T03:48:58.177Z,32.31
2019-05-28T03:49:58.203Z,32.41
2019-05-28T03:50:58.226Z,32.51
2019-05-28T03:51:58.252Z,32.62
2019-05-28T03:52:58.278Z,32.62
2019-05-28T03:53:58.302Z,32.33
2019-05-28T03:54:58.389Z,32.33
2019-05-28T03:55:58.357Z,32.23
2019-05-28T03:56:58.380Z,32.31
2019-05-28T03:57:58.408Z,32.23
2019-05-28T03:58:58.431Z,32.12
2019-05-28T03:59:58.458Z,32.33
2019-05-28T04:00:58.483Z,32.43
2019-05-28T04:01:58.553Z,32.43
2019-05-28T04:02:58.536Z,32.23
2019-05-28T04:03:58.563Z,32.14
2019-05-28T04:04:58.599Z,32.23
2019-05-28T04:05:58.613Z,32.23
2019-05-28T04:06:58.683Z,32.23
2019-05-28T04:07:58.731Z,32.43
2019-05-28T04:08:58.690Z,32.43
2019-05-28T04:09:58.715Z,32.23
2019-05-28T04:10:58.742Z,32.23
2019-05-28T04:11:58.769Z,32.33
2019-05-28T04:12:58.839Z,32.43
2019-05-28T04:13:58.823Z,32.43
2019-05-28T04:14:58.843Z,32.43
2019-05-28T04:15:58.872Z,32.43
2019-05-28T04:16:58.895Z,32.52
2019-05-28T04:17:58.989Z,32.23
2019-05-28T04:18:58.947Z,32.33
2019-05-28T04:19:58.972Z,32.43
2019-05-28T04:20:59.003Z,32.14
2019-05-28T04:21:59.025Z,32.33
2019-05-28T04:22:59.050Z,32.33
2019-05-28T04:23:59.077Z,32.33
2019-05-28T04:24:59.100Z,32.14
2019-05-28T04:25:59.128Z,32.62
2019-05-28T04:26:59.152Z,32.33
2019-05-28T04:27:59.179Z,32.33
2019-05-28T04:28:59.236Z,32.52
2019-05-28T04:29:59.233Z,32.52
2019-05-28T04:30:59.271Z,32.23
2019-05-28T04:31:59.280Z,32.52
2019-05-28T04:32:59.307Z,32.43
2019-05-28T04:33:59.331Z,32.33
2019-05-28T04:34:59.358Z,32.43
2019-05-28T04:35:59.382Z,32.23
2019-05-28T04:36:59.411Z,32.71
2019-05-28T04:37:59.436Z,32.62
2019-05-28T04:38:59.464Z,32.23
2019-05-28T04:39:59.485Z,32.62
2019-05-28T04:40:59.577Z,32.33
2019-05-28T04:41:59.539Z,32.33
2019-05-28T04:42:59.570Z,32.43
2019-05-28T04:43:59.591Z,32.52
2019-05-28T04:44:59.619Z,32.33
2019-05-28T04:45:59.642Z,32.23
2019-05-28T04:46:59.668Z,32.33
2019-05-28T04:47:59.694Z,32.14
2019-05-28T04:48:59.726Z,32.44
2019-05-28T04:49:59.743Z,31.96
2019-05-28T04:50:59.771Z,32.06
2019-05-28T04:51:59.797Z,31.96
2019-05-28T04:52:59.822Z,31.96
2019-05-28T04:53:59.850Z,32.06
2019-05-28T04:54:59.875Z,32.06
2019-05-28T04:55:59.900Z,32.06
2019-05-28T04:56:59.976Z,31.86
2019-05-28T04:57:59.949Z,32.06
2019-05-28T04:59:03.662Z,32.14
2019-05-28T05:00:00.011Z,32.06
2019-05-28T05:01:00.028Z,32.15
2019-05-28T05:02:00.053Z,32.15
2019-05-28T05:03:00.952Z,31.96
2019-05-28T05:04:00.116Z,31.96
2019-05-28T05:05:00.324Z,32.15
2019-05-28T05:06:00.162Z,31.96
2019-05-28T05:07:00.182Z,32.06
2019-05-28T05:08:00.262Z,31.96
2019-05-28T05:09:00.235Z,32.06
2019-05-28T05:10:00.318Z,32.06
2019-05-28T05:11:00.289Z,31.96
2019-05-28T05:12:00.312Z,32.15
2019-05-28T05:13:00.348Z,31.86
2019-05-28T05:14:00.366Z,31.96
2019-05-28T05:15:00.397Z,32.06
2019-05-28T05:16:00.415Z,32.15
2019-05-28T05:17:00.444Z,31.96
2019-05-28T05:18:00.468Z,32.24
2019-05-28T05:19:00.493Z,32.06
2019-05-28T05:20:00.518Z,31.86
2019-05-28T05:21:00.548Z,31.96
2019-05-28T05:22:00.568Z,32.06
2019-05-28T05:23:00.595Z,31.96
2019-05-28T05:24:00.623Z,32.15
2019-05-28T05:25:00.648Z,31.96
2019-05-28T05:26:00.673Z,32.06
2019-05-28T05:27:00.706Z,31.76
2019-05-28T05:28:00.724Z,31.76
2019-05-28T05:29:00.752Z,31.86
2019-05-28T05:30:00.777Z,31.96
2019-05-28T05:31:00.805Z,31.86
2019-05-28T05:32:00.830Z,31.96
2019-05-28T05:33:18.679Z,31.86
2019-05-28T05:34:00.910Z,31.96
2019-05-28T05:35:00.908Z,31.78
2019-05-28T05:36:00.968Z,31.86
2019-05-28T05:37:00.958Z,31.68
2019-05-28T05:38:00.984Z,31.68
2019-05-28T05:39:01.009Z,31.88
2019-05-28T05:40:01.062Z,32.17
2019-05-28T05:41:01.062Z,32.07
2019-05-28T05:42:01.088Z,31.88
2019-05-28T05:43:01.115Z,31.59
2019-05-28T05:44:01.139Z,31.59
2019-05-28T05:45:01.166Z,31.59
2019-05-28T05:46:01.191Z,31.68
2019-05-28T05:47:01.251Z,31.78
2019-05-28T05:48:01.243Z,31.59
2019-05-28T05:49:01.274Z,32.07
2019-05-28T05:50:01.295Z,32.07
2019-05-28T05:51:01.322Z,31.88
2019-05-28T05:52:01.419Z,31.98
2019-05-28T05:53:01.406Z,32.07
2019-05-28T05:54:01.407Z,31.88
2019-05-28T05:55:01.436Z,31.78
2019-05-28T05:56:01.451Z,32.07
2019-05-28T05:57:01.544Z,32.17
2019-05-28T05:58:01.573Z,31.68
2019-05-28T05:59:01.528Z,31.88
2019-05-28T06:00:01.556Z,31.78
2019-05-28T06:01:01.636Z,31.98
2019-05-28T06:02:01.607Z,32.07
2019-05-28T06:03:01.631Z,31.88
2019-05-28T06:04:01.659Z,31.88
2019-05-28T06:05:01.690Z,31.98
2019-05-28T06:06:01.709Z,32.07
2019-05-28T06:07:01.736Z,32.17
2019-05-28T06:08:01.801Z,32.07
2019-05-28T06:09:01.787Z,31.78
2019-05-28T06:10:01.910Z,31.78
2019-05-28T06:11:01.843Z,31.68
2019-05-28T06:12:01.866Z,31.68
2019-05-28T06:13:01.891Z,31.78
2019-05-28T06:14:01.968Z,32.07
2019-05-28T06:15:02.024Z,32.36
2019-05-28T06:16:02.016Z,32.07
2019-05-28T06:17:02.015Z,32.17
2019-05-28T06:18:02.090Z,31.98
2019-05-28T06:19:02.056Z,31.68
2019-05-28T06:20:02.131Z,32.17
2019-05-28T06:21:11.859Z,31.88
2019-05-28T06:22:02.124Z,31.68
2019-05-28T06:23:02.155Z,32.07
2019-05-28T06:24:02.178Z,31.68
2019-05-28T06:25:02.217Z,31.98
2019-05-28T06:26:02.231Z,31.98
2019-05-28T06:27:02.255Z,31.88
2019-05-28T06:28:02.294Z,31.68
2019-05-28T06:29:02.368Z,31.88
2019-05-28T06:30:02.342Z,31.49
2019-05-28T06:31:02.358Z,31.60
2019-05-28T06:32:02.386Z,31.59
2019-05-28T06:33:02.490Z,31.68
2019-05-28T06:34:02.442Z,31.59
2019-05-28T06:35:02.464Z,31.59
2019-05-28T06:36:02.492Z,31.60
2019-05-28T06:37:02.521Z,31.68
2019-05-28T06:38:02.615Z,31.68
2019-05-28T06:39:02.680Z,31.70
2019-05-28T06:40:02.605Z,31.60
2019-05-28T06:41:02.623Z,31.70
2019-05-28T06:42:02.647Z,31.89
2019-05-28T06:43:02.674Z,31.60
2019-05-28T06:44:02.707Z,31.70
2019-05-28T06:45:02.741Z,31.51
2019-05-28T06:46:02.751Z,31.68
2019-05-28T06:47:02.779Z,31.60
2019-05-28T06:48:02.805Z,31.68
2019-05-28T06:49:02.834Z,31.51
2019-05-28T06:50:02.919Z,31.60
2019-05-28T06:51:02.919Z,31.60
2019-05-28T06:52:02.947Z,31.80
2019-05-28T06:53:02.937Z,31.80
2019-05-28T06:54:02.983Z,31.70
2019-05-28T06:55:02.988Z,31.70
2019-05-28T06:56:03.012Z,31.60
2019-05-28T06:57:03.038Z,31.59
2019-05-28T06:58:03.063Z,31.60
2019-05-28T06:59:03.153Z,31.60
2019-05-28T07:00:03.119Z,31.59
2019-05-28T07:01:03.759Z,31.60
2019-05-28T07:02:03.245Z,31.59
2019-05-28T07:03:03.198Z,31.70
2019-05-28T07:04:13.367Z,31.70
2019-05-28T07:05:03.248Z,31.68
2019-05-28T07:06:07.280Z,31.70
2019-05-28T07:07:03.300Z,31.70
2019-05-28T07:08:03.446Z,31.99
2019-05-28T07:09:03.353Z,31.80
2019-05-28T07:10:03.378Z,31.89
2019-05-28T07:11:03.404Z,31.89
2019-05-28T07:12:03.433Z,31.68
2019-05-28T07:13:03.459Z,31.99
2019-05-28T07:14:03.484Z,31.98
2019-05-28T07:15:03.525Z,31.98
2019-05-28T07:16:03.534Z,31.88
2019-05-28T07:17:03.604Z,31.80
2019-05-28T07:18:03.635Z,31.68
2019-05-28T07:19:03.673Z,31.68
2019-05-28T07:20:03.642Z,31.70
2019-05-28T07:21:03.675Z,31.89
2019-05-28T07:22:03.695Z,31.70
2019-05-28T07:23:03.719Z,31.80
2019-05-28T07:24:05.160Z,31.70
2019-05-28T07:25:03.770Z,31.89
2019-05-28T07:26:03.797Z,31.89
2019-05-28T07:27:03.849Z,31.89
2019-05-28T07:28:11.166Z,32.09
2019-05-28T07:29:03.878Z,31.88
2019-05-28T07:30:03.915Z,31.80
2019-05-28T07:31:03.928Z,32.07
2019-05-28T07:32:03.957Z,31.89
2019-05-28T07:33:04.525Z,31.99
2019-05-28T07:34:04.010Z,31.98
2019-05-28T07:35:04.033Z,31.78
2019-05-28T07:36:04.059Z,32.17
2019-05-28T07:37:04.095Z,31.68
2019-05-28T07:38:04.110Z,31.89
2019-05-28T07:39:04.137Z,31.88
2019-05-28T07:40:04.197Z,31.68
2019-05-28T07:41:04.191Z,31.70
2019-05-28T07:42:04.233Z,32.17
2019-05-28T07:43:04.242Z,31.80
2019-05-28T07:44:04.275Z,31.78
2019-05-28T07:45:04.306Z,31.80
2019-05-28T07:46:04.320Z,31.78
2019-05-28T07:47:04.347Z,31.88
2019-05-28T07:48:04.382Z,31.80
2019-05-28T07:49:04.438Z,31.68
2019-05-28T07:50:04.423Z,31.68
2019-05-28T07:51:04.452Z,31.68
2019-05-28T07:52:04.593Z,32.17
2019-05-28T07:53:04.505Z,31.80
2019-05-28T07:54:04.537Z,31.78
2019-05-28T07:55:04.558Z,32.07
2019-05-28T07:56:04.644Z,32.07
2019-05-28T07:57:04.615Z,32.17
2019-05-28T07:58:04.634Z,32.07
2019-05-28T07:59:04.701Z,31.99
2019-05-28T08:00:05.759Z,31.98
2019-05-28T08:01:04.713Z,31.98
2019-05-28T08:02:04.739Z,31.78
2019-05-28T08:03:04.767Z,32.09
2019-05-28T08:04:04.800Z,31.88
2019-05-28T08:05:04.819Z,32.07
2019-05-28T08:06:04.887Z,31.99
2019-05-28T08:07:04.874Z,31.98
2019-05-28T08:08:04.896Z,31.68
2019-05-28T08:09:04.940Z,31.70
2019-05-28T08:10:04.950Z,31.68
2019-05-28T08:11:04.978Z,31.80
2019-05-28T08:12:05.002Z,31.59
2019-05-28T08:13:05.092Z,31.59
2019-05-28T08:14:05.053Z,31.60
2019-05-28T08:15:05.081Z,31.49
2019-05-28T08:16:19.374Z,31.59
2019-05-28T08:17:05.136Z,31.68
2019-05-28T08:18:05.159Z,31.60
2019-05-28T08:19:08.735Z,31.59
2019-05-28T08:20:05.222Z,31.49
2019-05-28T08:21:05.237Z,31.60
2019-05-28T08:22:05.295Z,31.68
2019-05-28T08:23:05.290Z,31.78
2019-05-28T08:24:05.318Z,31.68
2019-05-28T08:25:21.910Z,31.60
2019-05-28T08:26:05.406Z,31.60
2019-05-28T08:27:05.397Z,31.49
2019-05-28T08:28:19.414Z,31.59
2019-05-28T08:29:05.448Z,31.51
2019-05-28T08:30:05.472Z,31.59
2019-05-28T08:31:15.528Z,31.68
2019-05-28T08:32:05.525Z,31.60
2019-05-28T08:33:05.554Z,31.59
2019-05-28T08:34:05.640Z,31.68
2019-05-28T08:35:06.443Z,31.68
2019-05-28T08:36:05.629Z,31.51
2019-05-28T08:37:06.769Z,31.59
2019-05-28T08:38:05.698Z,31.49
2019-05-28T08:39:05.737Z,31.70
2019-05-28T08:40:05.749Z,31.68
2019-05-28T08:41:05.762Z,31.49
2019-05-28T08:42:05.794Z,31.49
2019-05-28T08:43:05.816Z,31.59
2019-05-28T08:44:05.840Z,31.49
2019-05-28T08:45:05.866Z,31.49
2019-05-28T08:46:05.892Z,31.70
2019-05-28T08:47:05.918Z,31.59
2019-05-28T08:48:05.959Z,31.59
2019-05-28T08:49:05.979Z,31.49
2019-05-28T08:50:06.033Z,31.49
2019-05-28T08:51:09.943Z,31.68
2019-05-28T08:52:06.052Z,31.51
2019-05-28T08:53:06.078Z,31.59
2019-05-28T08:54:06.109Z,31.51
2019-05-28T08:55:06.128Z,31.49
2019-05-28T08:56:06.156Z,31.68
2019-05-28T08:57:06.186Z,31.70
2019-05-28T08:58:06.257Z,31.51
2019-05-28T08:59:06.231Z,31.68
2019-05-28T09:00:06.298Z,31.40
2019-05-28T09:01:06.284Z,31.41
2019-05-28T09:02:06.311Z,31.40
2019-05-28T09:03:06.337Z,31.41
2019-05-28T09:04:06.363Z,31.41
2019-05-28T09:05:24.703Z,31.40
2019-05-28T09:06:06.416Z,31.41
2019-05-28T09:07:06.443Z,31.51
2019-05-28T09:08:06.471Z,31.49
2019-05-28T09:09:06.497Z,31.40
2019-05-28T09:10:06.609Z,31.41
2019-05-28T09:11:07.251Z,31.49
2019-05-28T09:12:09.569Z,31.49
2019-05-28T09:13:06.601Z,31.41
2019-05-28T09:14:06.671Z,31.70
2019-05-28T09:15:06.654Z,31.51
2019-05-28T09:16:06.676Z,31.68
2019-05-28T09:17:06.737Z,31.60
2019-05-28T09:18:06.780Z,31.60
2019-05-28T09:19:10.296Z,31.59
2019-05-28T09:20:06.783Z,31.49
2019-05-28T09:21:06.810Z,31.59
2019-05-28T09:22:06.834Z,31.68
2019-05-28T09:23:06.861Z,31.59
2019-05-28T09:24:06.887Z,31.59
2019-05-28T09:25:06.914Z,31.49
2019-05-28T09:26:06.941Z,31.51
2019-05-28T09:27:06.974Z,31.49
2019-05-28T09:28:06.994Z,31.68
2019-05-28T09:29:07.017Z,31.59
2019-05-28T09:30:07.044Z,31.60
2019-05-28T09:31:07.074Z,31.59
2019-05-28T09:32:07.096Z,31.59
2019-05-28T09:33:07.147Z,31.59
2019-05-28T09:34:07.148Z,31.59
2019-05-28T09:35:07.176Z,31.49
2019-05-28T09:36:09.156Z,31.59
2019-05-28T09:37:07.259Z,31.49
2019-05-28T09:38:07.255Z,31.59
2019-05-28T09:39:07.280Z,31.59
2019-05-28T09:40:07.307Z,31.60
2019-05-28T09:41:07.337Z,31.59
2019-05-28T09:42:07.358Z,31.59
2019-05-28T09:43:07.439Z,31.51
2019-05-28T09:44:07.411Z,31.59
2019-05-28T09:45:22.121Z,31.59
2019-05-28T09:46:07.465Z,31.49
2019-05-28T09:47:07.494Z,31.49
2019-05-28T09:48:07.517Z,31.49
2019-05-28T09:49:07.543Z,31.59
2019-05-28T09:50:27.026Z,31.68
2019-05-28T09:51:07.593Z,31.60
2019-05-28T09:52:07.621Z,31.59
2019-05-28T09:53:07.647Z,31.80
2019-05-28T09:54:07.673Z,31.60
2019-05-28T09:55:07.707Z,31.51
2019-05-28T09:56:07.725Z,31.59
2019-05-28T09:57:07.755Z,31.60
2019-05-28T09:58:07.777Z,31.60
2019-05-28T09:59:07.906Z,31.59
2019-05-28T10:00:07.834Z,31.59
2019-05-28T10:01:07.857Z,31.59
2019-05-28T10:02:07.930Z,31.59
2019-05-28T10:03:07.910Z,31.59
2019-05-28T10:04:07.939Z,31.60
2019-05-28T10:05:07.961Z,31.70
2019-05-28T10:06:16.787Z,31.59
2019-05-28T10:07:08.081Z,31.70
2019-05-28T10:08:08.048Z,31.89
2019-05-28T10:09:08.067Z,31.60
2019-05-28T10:10:08.096Z,31.68
2019-05-28T10:11:08.174Z,31.59
2019-05-28T10:12:08.186Z,31.78
2019-05-28T10:13:08.229Z,31.59
2019-05-28T10:14:08.196Z,31.59
2019-05-28T10:15:08.224Z,31.78
2019-05-28T10:16:08.261Z,31.59
2019-05-28T10:17:08.278Z,31.59
2019-05-28T10:18:08.341Z,31.70
2019-05-28T10:19:08.328Z,31.89
2019-05-28T10:20:08.355Z,31.98
2019-05-28T10:21:18.524Z,31.80
2019-05-28T10:22:08.409Z,31.88
2019-05-28T10:23:08.444Z,31.70
2019-05-28T10:24:08.461Z,31.78
2019-05-28T10:25:08.487Z,32.09
2019-05-28T10:26:08.511Z,31.89
2019-05-28T10:27:08.546Z,31.80
2019-05-28T10:28:08.619Z,31.68
2019-05-28T10:29:08.592Z,31.89
2019-05-28T10:30:08.624Z,32.09
2019-05-28T10:31:08.665Z,31.88
2019-05-28T10:32:08.668Z,31.88
2019-05-28T10:33:08.699Z,31.78
2019-05-28T10:34:08.720Z,31.88
2019-05-28T10:35:08.749Z,31.89
2019-05-28T10:36:08.834Z,32.09
2019-05-28T10:37:08.800Z,32.07
2019-05-28T10:38:14.898Z,31.89
2019-05-28T10:39:08.853Z,31.60
2019-05-28T10:40:08.882Z,31.70
2019-05-28T10:41:08.912Z,31.80
2019-05-28T10:42:08.935Z,31.70
2019-05-28T10:43:08.957Z,31.60
2019-05-28T10:44:08.985Z,31.60
2019-05-28T10:45:09.011Z,31.70
2019-05-28T10:46:09.050Z,31.60
2019-05-28T10:47:09.063Z,31.70
2019-05-28T10:48:09.091Z,31.80
2019-05-28T10:49:09.121Z,31.80
2019-05-28T10:50:09.142Z,31.89
2019-05-28T10:51:09.166Z,31.80
2019-05-28T10:52:09.196Z,31.99
2019-05-28T10:53:09.221Z,31.99
2019-05-28T10:54:09.244Z,31.99
2019-05-28T10:55:09.280Z,31.99
2019-05-28T10:56:09.385Z,32.09
2019-05-28T10:57:09.329Z,31.89
2019-05-28T10:58:09.350Z,31.80
2019-05-28T10:59:09.377Z,32.09
2019-05-28T11:00:09.405Z,31.89
2019-05-28T11:01:09.437Z,32.09
2019-05-28T11:02:09.455Z,32.09
2019-05-28T11:03:09.485Z,31.99
2019-05-28T11:04:09.543Z,31.89
2019-05-28T11:05:09.544Z,31.89
2019-05-28T11:06:09.560Z,31.99
2019-05-28T11:07:09.587Z,31.99
2019-05-28T11:08:09.614Z,31.89
2019-05-28T11:09:09.701Z,31.88
2019-05-28T11:10:22.969Z,32.09
2019-05-28T11:11:09.692Z,31.99
2019-05-28T11:12:09.719Z,31.89
2019-05-28T11:13:09.747Z,32.09
2019-05-28T11:14:09.770Z,32.09
2019-05-28T11:15:09.797Z,31.89
2019-05-28T11:16:09.830Z,31.70
2019-05-28T11:17:09.852Z,32.09
2019-05-28T11:18:09.877Z,32.09
2019-05-28T11:19:09.903Z,32.09
2019-05-28T11:20:09.927Z,31.99
2019-05-28T11:21:10.282Z,31.98
2019-05-28T11:22:09.981Z,32.09
2019-05-28T11:23:10.010Z,32.09
2019-05-28T11:24:10.033Z,32.09
2019-05-28T11:25:10.063Z,31.89
2019-05-28T11:26:10.141Z,31.89
2019-05-28T11:27:10.114Z,31.60
2019-05-28T11:28:10.137Z,31.70
2019-05-28T11:29:10.166Z,31.89
2019-05-28T11:30:10.195Z,31.60
2019-05-28T11:31:10.219Z,31.78
2019-05-28T11:32:10.244Z,31.70
2019-05-28T11:33:10.271Z,31.60
2019-05-28T11:34:10.295Z,31.60
2019-05-28T11:35:10.325Z,31.70
2019-05-28T11:36:10.347Z,31.70
2019-05-28T11:37:10.460Z,31.80
2019-05-28T11:38:10.413Z,31.80
2019-05-28T11:39:10.428Z,31.80
2019-05-28T11:40:11.278Z,31.60
2019-05-28T11:41:10.480Z,31.68
2019-05-28T11:42:10.504Z,31.60
2019-05-28T11:43:10.534Z,31.60
2019-05-28T11:44:10.558Z,31.51
2019-05-28T11:45:10.764Z,31.59
2019-05-28T11:46:10.614Z,31.60
2019-05-28T11:47:10.673Z,31.59
2019-05-28T11:48:10.694Z,31.59
2019-05-28T11:49:10.691Z,31.51
2019-05-28T11:50:10.715Z,31.68
2019-05-28T11:51:10.754Z,31.59
2019-05-28T11:52:10.807Z,31.60
2019-05-28T11:53:10.798Z,31.68
2019-05-28T11:54:10.877Z,31.59
2019-05-28T11:55:10.847Z,31.68
2019-05-28T11:56:10.878Z,31.59
2019-05-28T11:57:10.900Z,31.49
2019-05-28T11:58:10.925Z,31.59
2019-05-28T11:59:11.024Z,31.60
2019-05-28T12:00:11.015Z,31.59
2019-05-28T12:01:11.005Z,31.59
2019-05-28T12:02:11.082Z,31.68
2019-05-28T12:03:11.057Z,31.59
2019-05-28T12:04:11.084Z,31.68
2019-05-28T12:05:11.113Z,31.59
2019-05-28T12:06:11.179Z,31.59
2019-05-28T12:07:25.104Z,31.49
2019-05-28T12:08:11.196Z,31.60
2019-05-28T12:09:11.216Z,31.78
2019-05-28T12:10:11.239Z,31.68
2019-05-28T12:11:11.266Z,31.88
2019-05-28T12:12:11.297Z,31.59
2019-05-28T12:13:11.378Z,31.59
2019-05-28T12:14:11.343Z,31.59
2019-05-28T12:15:11.374Z,31.70
2019-05-28T12:16:11.409Z,31.68
2019-05-28T12:17:11.422Z,31.60
2019-05-28T12:18:11.454Z,31.59
2019-05-28T12:19:11.493Z,31.68
2019-05-28T12:20:12.073Z,31.88
2019-05-28T12:21:11.529Z,31.60
2019-05-28T12:22:11.553Z,31.70
2019-05-28T12:23:12.287Z,31.70
2019-05-28T12:24:11.609Z,31.49
2019-05-28T12:25:11.638Z,31.59
2019-05-28T12:26:11.662Z,31.59
2019-05-28T12:27:11.685Z,31.59
2019-05-28T12:28:11.761Z,31.59
2019-05-28T12:29:11.775Z,31.51
2019-05-28T12:30:11.763Z,31.59
2019-05-28T12:31:11.846Z,31.59
2019-05-28T12:32:11.841Z,31.59
2019-05-28T12:33:11.843Z,31.59
2019-05-28T12:34:11.876Z,31.68
2019-05-28T12:35:27.348Z,31.59
2019-05-28T12:36:11.924Z,31.49
2019-05-28T12:37:11.947Z,31.59
2019-05-28T12:38:11.974Z,31.70
2019-05-28T12:39:12.001Z,31.59
2019-05-28T12:40:12.175Z,31.59
2019-05-28T12:41:12.055Z,31.59
2019-05-28T12:42:12.079Z,31.59
2019-05-28T12:43:12.274Z,31.78
2019-05-28T12:44:12.130Z,31.59
2019-05-28T12:45:12.157Z,31.80
2019-05-28T12:46:12.182Z,31.59
2019-05-28T12:47:14.771Z,31.59
2019-05-28T12:48:13.394Z,31.78
2019-05-28T12:49:13.074Z,31.68
2019-05-28T12:50:19.731Z,31.59
2019-05-28T12:51:12.329Z,31.60
2019-05-28T12:52:12.343Z,31.59